Scottsville, NY

12:52 AM EDT on March 26, 2017 (GMT -0400)
Buffalo Niagara International | | Change Station

Elev 722 ft 42.94 °N, 78.73 °W | Updated 58 minutes ago

Overcast
Overcast
34 °F
Feels Like 23 °F
N
17
Wind Variable Wind from ENE

Today
High -- | Low -- °F
--% Chance of Precip.
Yesterday
High -- | Low -- °F
Precip. -- in
Pressure 30.34 in
Visibility 10.0 miles
Clouds Overcast 700 ft
Windchill 23 °F
Dew Point 31 °F
Humidity 89%
Rainfall 0.73 in
Snow Depth Not available.
7:03 AM 7:30 PM
Waning Crescent, 5% visible
METAR KBUF 260354Z 07015KT 10SM -RA OVC007 01/M01 A3031 RMK AO2 SLP272 P0000 T00111006 $
Pressure 30.34 in
Visibility 10.0 miles
Clouds Overcast 700 ft
Windchill 23 °F
Dew Point 31 °F
Humidity 89%
Rainfall 0.73 in
Snow Depth Not available.
7:03 AM 7:30 PM
Waning Crescent, 5% visible
METAR KBUF 260354Z 07015KT 10SM -RA OVC007 01/M01 A3031 RMK AO2 SLP272 P0000 T00111006 $

Get Severe Weather Alerts

Thanks for signing up!

Be on the lookout for a verification email in your inbox.

You'll start receiving the daily forecast at 8 AM.

×

10-Day Weather Forecast

Almanac

Astronomy

Mar. 26, 2017 Rise Set
Actual Time
Civil Twilight
Nautical Twilight
Astronomical Twilight
Moon
Length of Visible Light
Length of Day
Tomorrow will be .
, % of the Moon is Illuminated

Today's Extremes

State Highs State Lows

Community

WunderPhotos

Upload Photos

1,962,540 photos uploaded!

WunderBlog® & News

Nearby

Air Quality

  Air Quality AQ Index Pollutant
Not available.

Snow Depth

Station Depth Elevation

Earthquake Activity

City Distance Mag. Time & Date
Minimum magnitude displayed is 2.5.

Earthquake Activity

City Distance Mag. Time & Date
Minimum magnitude displayed is 2.5.

Coastal Water Temperatures

Place Temperature

Stations

Nearby Weather Stations

Station Location Temp. Windchill Dew Point Humidity Wind Precip. Elev Updated Type
                   

Watches & Warnings

There are currently no watches in effect.